ADDS METAR Data INFO
IDs: Format: Raw Decoded Include TAF

Data at: 0807 UTC 24 May 2018

KBKS 240755Z AUTO 00000KT 2SM 23/22 A3000 RMK AO1 SKY OBSCURED T02340218
KBKS 240735Z AUTO 00000KT 2 1/2SM 23/21 A2999 RMK AO1 SKY OBSCURED T02310213
KBKS 240715Z AUTO 00000KT 1 1/2SM VV007 24/22 A2999 RMK AO1 T02350218
KBKS 240655Z AUTO 00000KT 1SM VV007 24/22 A2999 RMK AO1 T02400221
KBKS 240635Z AUTO 00000KT 1 1/4SM VV007 24/22 A2999 RMK AO1 T02430222
KBKS 240615Z AUTO 00000KT 3/4SM VV005 24/22 A2999 RMK AO1 T02430221
KBKS 240555Z AUTO 07003KT 1/4SM VV002 25/22 A2999 RMK AO1 T02450220 10317 20245 403560217
KBKS 240535Z AUTO 00000KT 1/4SM VV002 25/22 A3000 RMK AO1 T02490223
KBKS 240515Z AUTO 08004KT 1/4SM VV002 25/23 A2999 RMK AO1 T02520225
KBKS 240455Z AUTO 09004KT 1 1/2SM VV007 26/23 A2999 RMK AO1 VIS 1V3 T02550225
KBKS 240435Z AUTO 10005KT 2 1/2SM 26/23 A2999 RMK AO1 SKY OBSCURED T02580226
KBKS 240415Z AUTO 10005KT 2 1/2SM 26/23 A2999 RMK AO1 SKY OBSCURED VIS 2V4 T02600226
KBKS 240355Z AUTO 11006KT 4SM CLR 26/22 A2998 RMK AO1 T02620223
KBKS 240335Z AUTO 11006KT 1 1/4SM VV007 27/22 A2998 RMK AO1 VIS 3/4V2 1/2 T02650221
KBKS 240315Z AUTO 12008KT 7SM CLR 27/22 A2997 RMK AO1 T02680220
KBKS 240255Z AUTO 12006KT 4SM CLR 27/22 A2997 RMK AO1 T02710218
KBKS 240235Z AUTO 12009KT 10SM CLR 28/22 A2996 RMK AO1 T02750217
KBKS 240215Z AUTO 11008G14KT 10SM CLR 28/22 A2995 RMK AO1 T02770217
KBKS 240155Z AUTO 12007KT 10SM CLR 28/22 A2995 RMK AO1 T02800216
KBKS 240135Z AUTO 12009G15KT 10SM CLR 29/21 A2994 RMK AO1 T02860212
KBKS 240115Z AUTO 11011G14KT 10SM CLR 29/21 A2993 RMK AO1 T02920210
KBKS 240055Z AUTO 11010G15KT 10SM CLR 30/20 A2992 RMK AO1 T02980204
KBKS 240035Z AUTO 10010G16KT 10SM CLR 31/20 A2991 RMK AO1 T03050200
KBKS 240015Z AUTO 10011G16KT 10SM CLR 31/20 A2991 RMK AO1 T03130202
KBKS 232355Z AUTO 11010KT 10SM CLR 32/21 A2991 RMK AO1 T03160205 10356 20316
KBKS 232335Z AUTO 10012G18KT 10SM CLR 32/20 A2991 RMK AO1 T03200202
KBKS 232315Z AUTO 10010G17KT 10SM SCT044 SCT060 33/20 A2991 RMK AO1 T03260201
KBKS 232255Z AUTO 11013G18KT 10SM SCT043 SCT060 33/20 A2991 RMK AO1 T03290202
KBKS 232235Z AUTO 10013G20KT 10SM CLR 33/20 A2991 RMK AO1 T03320200
KBKS 232215Z AUTO 11015G20KT 10SM SCT045 33/20 A2990 RMK AO1 T03310201
KBKS 232155Z AUTO 09012KT 10SM SCT043 SCT049 34/21 A2991 RMK AO1 T03350205
KBKS 232135Z AUTO 10013KT 10SM SCT046 33/21 A2991 RMK AO1 T03330207
KBKS 232115Z AUTO 08013G16KT 10SM SCT043 SCT090 34/21 A2991 RMK AO1 T03430205
KBKS 232055Z AUTO 07012G22KT 10SM SCT043 SCT090 34/21 A2991 RMK AO1 T03440207
KBKS 232035Z AUTO 07012G21KT 10SM CLR 34/21 A2991 RMK AO1 T03380207
KBKS 232015Z AUTO 09013G19KT 10SM SCT042 SCT050 SCT085 34/21 A2992 RMK AO1 T03390212
KBKS 231955Z AUTO 07014G18KT 10SM SCT043 BKN050 BKN085 32/22 A2992 RMK AO1 T03170215
KBKS 231935Z AUTO 07014G19KT 10SM SCT049 BKN080 OVC100 33/21 A2992 RMK AO1 T03330206
KBKS 231915Z AUTO 11011G16KT 10SM SCT049 BKN055 OVC080 33/20 A2993 RMK AO1 T03310204
KBKS 231855Z AUTO 10011G15KT 10SM BKN055 34/18 A2993 RMK AO1 T03390177
KBKS 231835Z AUTO 14009KT 130V190 10SM SCT055 36/16 A2993 RMK AO1 T03550161
KBKS 231815Z AUTO 14009G14KT 10SM SCT055 35/17 A2994 RMK AO1 T03490165
KBKS 231755Z AUTO 14005G15KT 10SM SCT055 SCT065 34/17 A2995 RMK AO1 T03380170 10345 20225
KBKS 231735Z AUTO 11008KT 10SM SCT050 33/18 A2996 RMK AO1 T03290183
KBKS 231715Z AUTO 14007KT 10SM SCT048 SCT060 33/19 A2997 RMK AO1 T03260187
KBKS 231655Z AUTO 16006KT 10SM SCT041 SCT047 32/19 A2998 RMK AO1 T03230191
KBKS 231635Z AUTO 14006KT 10SM SCT037 SCT043 SCT055 31/19 A2998 RMK AO1 T03130194
KBKS 231615Z AUTO 13008KT 10SM CLR 31/20 A2998 RMK AO1 T03120198
KBKS 231555Z AUTO 15007KT 10SM CLR 30/20 A2999 RMK AO1 T03010202
KBKS 231535Z AUTO 14005KT 10SM CLR 29/21 A2999 RMK AO1 T02890211
KBKS 231515Z AUTO 15008KT 10SM SCT022 SCT027 SCT032 29/21 A2999 RMK AO1 T02910212
KBKS 231455Z AUTO 12006KT 10SM SCT020 BKN027 BKN032 28/22 A2999 RMK AO1 T02840215
KBKS 231435Z AUTO 13008KT 10SM SCT018 SCT024 28/22 A2999 RMK AO1 T02770222
KBKS 231415Z AUTO 15006KT 10SM SCT010 SCT015 28/23 A2999 RMK AO1 T02750226
KBKS 231355Z AUTO 13006KT 10SM SCT009 26/23 A2998 RMK AO1 T02640230
KBKS 231335Z AUTO 10004KT 10SM CLR 25/23 A2998 RMK AO1 T02540230
KBKS 231315Z AUTO 08003KT 10SM CLR 24/23 A2997 RMK AO1 T02420228
KBKS 231255Z AUTO 06003KT 5SM CLR 24/23 A2997 RMK AO1 T02360226
KBKS 231235Z AUTO 00000KT 4SM CLR 23/22 A2996 RMK AO1 T02300220
KBKS 231215Z AUTO 00000KT 3SM CLR 23/22 A2996 RMK AO1 T02260217
KBKS 231155Z AUTO 00000KT 5SM CLR 23/22 A2995 RMK AO1 T02250215 10235 20217
KBKS 231135Z AUTO 11003KT 4SM CLR 23/22 A2994 RMK AO1 T02250215
KBKS 231115Z AUTO 10003KT 5SM CLR 22/21 A2993 RMK AO1 T02240214
KBKS 231055Z AUTO 12003KT 1 3/4SM VV007 23/22 A2993 RMK AO1 T02260216
KBKS 231035Z AUTO 14004KT 1 1/4SM VV007 22/21 A2993 RMK AO1 T02170207
KBKS 231015Z AUTO 11003KT 1 1/4SM VV007 22/21 A2993 RMK AO1 T02210211
KBKS 230955Z AUTO 00000KT 2 1/2SM 22/21 A2993 RMK AO1 SKY OBSCURED T02220211
KBKS 230935Z AUTO 00000KT 1SM VV007 22/21 A2993 RMK AO1 T02210210
KBKS 230915Z AUTO 00000KT 1 1/2SM VV007 22/21 A2993 RMK AO1 T02230212
KBKS 230855Z AUTO 09003KT 1 3/4SM VV007 22/21 A2993 RMK AO1 T02230212
KBKS 230835Z AUTO 05003KT 3SM CLR 23/21 A2993 RMK AO1 T02250214
KBKS 230815Z AUTO 00000KT 1SM VV007 23/21 A2993 RMK AO1 T02250213
KBKS 230755Z AUTO 11003KT 3/4SM VV005 23/22 A2993 RMK AO1 T02280215
KBKS 230735Z AUTO 00000KT 4SM CLR 23/22 A2994 RMK AO1 T02280215
KBKS 230715Z AUTO 06003KT 2 1/2SM CLR 23/22 A2995 RMK AO1 T02300215
KBKS 230655Z AUTO 09003KT 2SM CLR 23/22 A2995 RMK AO1 T02300215
KBKS 230635Z AUTO 08003KT 1 1/4SM VV007 23/22 A2994 RMK AO1 T02310215
KBKS 230615Z AUTO 10003KT 3/4SM VV005 23/22 A2994 RMK AO1 T02330216
KBKS 230555Z AUTO 11003KT 1SM VV007 24/22 A2995 RMK AO1 T02350216 10306 20235 403490226
KBKS 230535Z AUTO 00000KT 1 1/2SM VV007 24/22 A2995 RMK AO1 VIS 1V2 T02380216
KBKS 230515Z AUTO 09003KT 3/4SM VV005 24/22 A2995 RMK AO1 T02410217
KBKS 230455Z AUTO 09003KT 1/2SM VV005 25/22 A2995 RMK AO1 T02460220
KBKS 230435Z AUTO 11005KT 3/4SM VV005 25/22 A2995 RMK AO1 T02500220
KBKS 230415Z AUTO 12006KT 3/4SM VV005 25/22 A2994 RMK AO1 T02530220
KBKS 230355Z AUTO 11006KT 3/4SM VV005 26/22 A2993 RMK AO1 T02550217
KBKS 230335Z AUTO 11006KT 1/2SM VV005 26/22 A2993 RMK AO1 T02570217
KBKS 230315Z AUTO 12006KT 1 1/2SM VV007 26/22 A2992 RMK AO1 T02600215
KBKS 230300Z AUTO 11007KT 7SM CLR 26/21 A2991 RMK AO1 T02600213
KBKS 230240Z AUTO 10007KT 10SM CLR 27/21 A2991 RMK AO1 T02650210
KBKS 230220Z AUTO 11007KT 10SM CLR 27/21 A2991 RMK AO1 T02680206
KBKS 230155Z AUTO 12008KT 10SM CLR 27/20 A2990 RMK AO1 T02720201
KBKS 230135Z AUTO 12010KT 10SM CLR 28/19 A2990 RMK AO1 T02780194
KBKS 230115Z AUTO 12008KT 10SM CLR 28/19 A2989 RMK AO1 T02840185
KBKS 230055Z AUTO 12012G19KT 10SM CLR 29/18 A2988 RMK AO1 T02900181
KBKS 230035Z AUTO 13012G17KT 10SM CLR 30/19 A2987 RMK AO1 T02970186
KBKS 230015Z AUTO 11010G19KT 5SM CLR 30/20 A2987 RMK AO1 T03010195
KBKS 222355Z AUTO 12015G19KT 7SM CLR 31/19 A2987 RMK AO1 T03080194 10349 20308
KBKS 222335Z AUTO 12016G19KT 10SM CLR 31/19 A2987 RMK AO1 T03140193
KBKS 222315Z AUTO 11012G17KT 10SM CLR 32/19 A2987 RMK AO1 T03200188
KBKS 222255Z AUTO 10012G17KT 10SM CLR 32/19 A2987 RMK AO1 T03230190
KBKS 222235Z AUTO 09016KT 7SM CLR 33/19 A2987 RMK AO1 T03250192
KBKS 222215Z AUTO 12013G18KT 10SM CLR 32/19 A2987 RMK AO1 T03240191
KBKS 222155Z AUTO 10014G21KT 10SM SCT050 32/19 A2987 RMK AO1 T03240190
KBKS 222135Z AUTO 10013G20KT 10SM SCT050 33/19 A2986 RMK AO1 T03250187
KBKS 222115Z AUTO 11012G19KT 10SM CLR 33/18 A2987 RMK AO1 T03320177
KBKS 222055Z AUTO 12011G17KT 10SM SCT055 SCT075 34/18 A2987 RMK AO1 T03420177
KBKS 222035Z AUTO 12012G19KT 10SM SCT055 35/18 A2987 RMK AO1 T03470175
KBKS 222015Z AUTO 10011G18KT 10SM CLR 34/18 A2988 RMK AO1 T03360176